createdAt,value
2018-01-07T00:00:55.865Z,1.1
2018-01-07T00:01:58.648Z,1.1
2018-01-07T00:03:01.137Z,1.6
2018-01-07T00:04:03.636Z,1.4
2018-01-07T00:05:06.416Z,1.4
2018-01-07T00:06:09.195Z,1.6
2018-01-07T00:07:11.697Z,1.5
2018-01-07T00:08:14.174Z,1.6
2018-01-07T00:09:16.670Z,1.4
2018-01-07T00:10:19.177Z,1.4
2018-01-07T00:11:21.657Z,1.3
2018-01-07T00:12:24.153Z,1.1
2018-01-07T00:13:26.926Z,1.1
2018-01-07T00:14:29.416Z,1.1
2018-01-07T00:15:31.914Z,1.1
2018-01-07T00:16:34.403Z,1.1
2018-01-07T00:17:36.881Z,1.4
2018-01-07T00:18:39.388Z,1.6
2018-01-07T00:19:41.918Z,1.3
2018-01-07T00:20:44.371Z,1.3
2018-01-07T00:21:46.868Z,1.3
2018-01-07T00:22:49.351Z,1.2
2018-01-07T00:23:51.839Z,1.1
2018-01-07T00:24:54.635Z,1.1
2018-01-07T00:25:57.107Z,1.1
2018-01-07T00:26:59.601Z,1.1
2018-01-07T00:28:02.141Z,1.3
2018-01-07T00:29:04.628Z,1.4
2018-01-07T00:30:07.418Z,1.4
2018-01-07T00:31:09.913Z,1.5
2018-01-07T00:32:12.388Z,1.3
2018-01-07T00:33:14.883Z,1.3
2018-01-07T00:34:17.374Z,1.2
2018-01-07T00:35:19.862Z,1.1
2018-01-07T00:36:22.345Z,1.1
2018-01-07T00:37:24.835Z,1.1
2018-01-07T00:38:27.324Z,1.1
2018-01-07T00:39:29.816Z,1.4
2018-01-07T00:40:32.307Z,1.6
2018-01-07T00:41:34.802Z,1.4
2018-01-07T00:42:37.299Z,1.3
2018-01-07T00:43:40.084Z,1.3
2018-01-07T00:44:42.569Z,1.4
2018-01-07T00:45:45.052Z,1.3
2018-01-07T00:46:47.541Z,1.4
2018-01-07T00:47:50.034Z,1.1
2018-01-07T00:48:52.515Z,1.1
2018-01-07T00:49:55.016Z,1.1
2018-01-07T00:50:57.494Z,1.4
2018-01-07T00:51:59.988Z,1.6
2018-01-07T00:53:02.490Z,1.6
2018-01-07T00:54:04.968Z,1.3
2018-01-07T00:55:07.752Z,1.3
2018-01-07T00:56:10.243Z,1.3
2018-01-07T00:57:13.032Z,1.3
2018-01-07T00:58:15.540Z,1.1
2018-01-07T00:59:18.596Z,1.1
2018-01-07T01:00:21.083Z,1.1
2018-01-07T01:01:23.573Z,1.1
2018-01-07T01:02:26.056Z,1.1
2018-01-07T01:03:28.549Z,1.1
2018-01-07T01:04:31.618Z,1.5
2018-01-07T01:05:34.112Z,1.5
2018-01-07T01:06:36.605Z,1.1
2018-01-07T01:07:39.078Z,1.3
2018-01-07T01:08:41.867Z,1.3
2018-01-07T01:09:44.645Z,1.4
2018-01-07T01:10:47.434Z,1.5
2018-01-07T01:11:49.925Z,1.3
2018-01-07T01:12:52.406Z,1.3
2018-01-07T01:13:54.891Z,1.4
2018-01-07T01:14:57.679Z,1.2
2018-01-07T01:16:00.162Z,1.2
2018-01-07T01:17:02.651Z,1.3
2018-01-07T01:18:05.145Z,1
2018-01-07T01:19:07.918Z,1
2018-01-07T01:20:10.414Z,1.1
2018-01-07T01:21:12.900Z,1.5
2018-01-07T01:22:15.684Z,1.5
2018-01-07T01:23:18.183Z,1.4
2018-01-07T01:24:20.669Z,1.3
2018-01-07T01:25:23.164Z,1.6
2018-01-07T01:26:25.946Z,1.2
2018-01-07T01:27:28.437Z,1.3
2018-01-07T01:28:30.924Z,1.2
2018-01-07T01:29:33.421Z,1.1
2018-01-07T01:30:35.901Z,1.2
2018-01-07T01:31:38.385Z,1.1
2018-01-07T01:32:40.868Z,1.1
2018-01-07T01:33:43.372Z,1.4
2018-01-07T01:34:45.855Z,1.4
2018-01-07T01:35:48.345Z,1.5
2018-01-07T01:36:51.121Z,1.5
2018-01-07T01:37:53.614Z,1.4
2018-01-07T01:38:56.098Z,1.2
2018-01-07T01:39:58.587Z,1.3
2018-01-07T01:41:01.354Z,1.1
2018-01-07T01:42:04.129Z,1.2
2018-01-07T01:43:06.630Z,1.2
2018-01-07T01:44:09.117Z,1.1
2018-01-07T01:45:11.911Z,1
2018-01-07T01:46:14.698Z,1
2018-01-07T01:47:17.185Z,1.1
2018-01-07T01:48:19.690Z,1.4
2018-01-07T01:49:22.175Z,1.5
2018-01-07T01:50:24.660Z,1.4
2018-01-07T01:51:27.445Z,1.4
2018-01-07T01:52:29.939Z,1.3
2018-01-07T01:53:32.418Z,1.4
2018-01-07T01:54:34.924Z,1.4
2018-01-07T01:55:37.395Z,1.4
2018-01-07T01:56:39.886Z,1.1
2018-01-07T01:57:42.389Z,1
2018-01-07T01:58:45.164Z,1
2018-01-07T01:59:47.661Z,1.7
2018-01-07T02:00:50.150Z,1.1
2018-01-07T02:01:52.934Z,1.5
2018-01-07T02:02:55.409Z,1.6
2018-01-07T02:03:57.900Z,1.4
2018-01-07T02:05:00.693Z,1.5
2018-01-07T02:06:03.180Z,1.3
2018-01-07T02:07:05.671Z,1.2
2018-01-07T02:08:08.468Z,1.4
2018-01-07T02:09:11.242Z,1.2
2018-01-07T02:10:14.031Z,1.3
2018-01-07T02:11:16.518Z,1.3
2018-01-07T02:12:18.992Z,1.2
2018-01-07T02:13:21.770Z,1.1
2018-01-07T02:14:24.268Z,1.1
2018-01-07T02:15:26.766Z,1
2018-01-07T02:16:29.246Z,1.1
2018-01-07T02:17:31.735Z,1.4
2018-01-07T02:18:34.224Z,1.4
2018-01-07T02:19:36.720Z,1.4
2018-01-07T02:20:39.213Z,1.3
2018-01-07T02:21:41.694Z,1.3
2018-01-07T02:22:44.190Z,1.1
2018-01-07T02:23:46.983Z,1.1
2018-01-07T02:24:50.056Z,1.1
2018-01-07T02:25:52.546Z,1.2
2018-01-07T02:26:55.326Z,1.3
2018-01-07T02:27:57.812Z,1.1
2018-01-07T02:29:00.598Z,1.1
2018-01-07T02:30:03.093Z,1.1
2018-01-07T02:31:05.585Z,1.1
2018-01-07T02:32:08.079Z,1
2018-01-07T02:33:10.569Z,1.4
2018-01-07T02:34:13.060Z,1.3
2018-01-07T02:35:15.549Z,1.3
2018-01-07T02:36:18.042Z,1.3
2018-01-07T02:37:20.540Z,1.4
2018-01-07T02:38:23.026Z,1.2
2018-01-07T02:39:25.523Z,1.1
2018-01-07T02:40:28.302Z,1
2018-01-07T02:41:31.099Z,1.1
2018-01-07T02:42:33.593Z,1.1
2018-01-07T02:43:36.083Z,1.1
2018-01-07T02:44:38.568Z,1.3
2018-01-07T02:45:41.066Z,1.7
2018-01-07T02:46:43.544Z,1.4
2018-01-07T02:47:46.339Z,1.3
2018-01-07T02:48:48.833Z,1.5
2018-01-07T02:49:51.314Z,1.2
2018-01-07T02:50:53.807Z,1.3
2018-01-07T02:51:56.298Z,1.1
2018-01-07T02:52:58.780Z,1
2018-01-07T02:54:01.576Z,1.1
2018-01-07T02:55:04.048Z,1.1
2018-01-07T02:56:06.532Z,1.1
2018-01-07T02:57:09.039Z,1.5
2018-01-07T02:58:11.829Z,1.3
2018-01-07T02:59:14.322Z,1.5
2018-01-07T03:00:17.099Z,1.5
2018-01-07T03:01:19.891Z,1.5
2018-01-07T03:02:22.651Z,1.4
2018-01-07T03:03:25.150Z,1.4
2018-01-07T03:04:27.644Z,1.3
2018-01-07T03:05:30.131Z,1.2
2018-01-07T03:06:32.623Z,1.4
2018-01-07T03:07:35.110Z,1.3
2018-01-07T03:08:37.590Z,1.1
2018-01-07T03:09:40.086Z,1
2018-01-07T03:10:42.567Z,1.1
2018-01-07T03:11:45.062Z,1.4
2018-01-07T03:12:47.841Z,1.3
2018-01-07T03:13:50.338Z,1.4
2018-01-07T03:14:52.829Z,1.4
2018-01-07T03:15:55.320Z,1.3
2018-01-07T03:16:58.196Z,1.3
2018-01-07T03:18:00.981Z,1.2
2018-01-07T03:19:03.470Z,1.4
2018-01-07T03:20:06.271Z,1.1
2018-01-07T03:21:08.746Z,1.2
2018-01-07T03:22:11.529Z,1
2018-01-07T03:23:14.024Z,1.1
2018-01-07T03:24:16.806Z,1.1
2018-01-07T03:25:19.300Z,1.1
2018-01-07T03:26:21.789Z,1
2018-01-07T03:27:24.274Z,1.1
2018-01-07T03:28:26.778Z,1.4
2018-01-07T03:29:29.266Z,1.5
2018-01-07T03:30:32.329Z,1.4
2018-01-07T03:31:35.532Z,1.5
2018-01-07T03:32:38.051Z,1.4
2018-01-07T03:33:40.539Z,1.3
2018-01-07T03:34:43.030Z,1.5
2018-01-07T03:35:45.567Z,1.5
2018-01-07T03:36:48.136Z,1.2
2018-01-07T03:37:50.713Z,1.1
2018-01-07T03:38:53.233Z,1.2
2018-01-07T03:39:56.045Z,1
2018-01-07T03:40:58.566Z,1
2018-01-07T03:42:01.354Z,1
2018-01-07T03:43:03.883Z,1.1
2018-01-07T03:44:06.907Z,1.1
2018-01-07T03:45:09.697Z,1
2018-01-07T03:46:12.183Z,1
2018-01-07T03:47:14.665Z,1
2018-01-07T03:48:17.174Z,1.1
2018-01-07T03:49:19.660Z,1.3
2018-01-07T03:50:22.189Z,1.4
2018-01-07T03:51:24.722Z,1.5
2018-01-07T03:52:27.268Z,1.3
2018-01-07T03:53:29.813Z,1.4
2018-01-07T03:54:32.338Z,1.4
2018-01-07T03:55:35.122Z,1.2
2018-01-07T03:56:38.302Z,1.1
2018-01-07T03:57:40.829Z,1.1
2018-01-07T03:58:43.680Z,1.3
2018-01-07T03:59:46.387Z,1.2
2018-01-07T04:00:48.913Z,1.1
2018-01-07T04:01:51.704Z,1
2018-01-07T04:02:54.594Z,1.1
2018-01-07T04:03:57.716Z,1.1
2018-01-07T04:05:00.550Z,1
2018-01-07T04:06:03.182Z,1.2
2018-01-07T04:07:06.079Z,1
2018-01-07T04:08:08.889Z,1.1
2018-01-07T04:09:11.628Z,1.3
2018-01-07T04:10:14.272Z,1.1
2018-01-07T04:11:17.593Z,1.3
2018-01-07T04:12:20.248Z,1.2
2018-01-07T04:13:23.090Z,1.2
2018-01-07T04:14:26.088Z,1.5
2018-01-07T04:15:28.748Z,1.4
2018-01-07T04:16:32.000Z,1.3
2018-01-07T04:17:34.739Z,1.4
2018-01-07T04:18:37.702Z,1.4
2018-01-07T04:19:40.524Z,1.4
2018-01-07T04:20:43.781Z,1.4
2018-01-07T04:21:46.798Z,1.4
2018-01-07T04:22:49.621Z,1.5
2018-01-07T04:23:52.857Z,1.5
2018-01-07T04:24:55.489Z,1.3
2018-01-07T04:25:58.198Z,1.1
2018-01-07T04:27:00.948Z,1.1
2018-01-07T04:28:04.225Z,1
2018-01-07T04:29:06.804Z,1.1
2018-01-07T04:30:09.578Z,1.1
2018-01-07T04:31:12.795Z,1
2018-01-07T04:32:15.547Z,1.1
2018-01-07T04:33:18.096Z,1.1
2018-01-07T04:34:20.888Z,1.3
2018-01-07T04:35:23.418Z,1.1
2018-01-07T04:36:25.973Z,1
2018-01-07T04:37:28.524Z,1
2018-01-07T04:38:31.046Z,1.1
2018-01-07T04:39:33.823Z,1.4
2018-01-07T04:40:36.376Z,1.6
2018-01-07T04:41:38.930Z,1.4
2018-01-07T04:42:41.704Z,1.3
2018-01-07T04:43:44.201Z,1.4
2018-01-07T04:44:46.783Z,1.5
2018-01-07T04:45:49.340Z,1.3
2018-01-07T04:46:51.865Z,1.3
2018-01-07T04:47:54.394Z,1.2
2018-01-07T04:48:57.187Z,1.2
2018-01-07T04:49:59.973Z,1
2018-01-07T04:51:02.463Z,1.1
2018-01-07T04:52:04.944Z,1.1
2018-01-07T04:53:07.443Z,1
2018-01-07T04:54:09.932Z,1
2018-01-07T04:55:12.719Z,1.3
2018-01-07T04:56:15.209Z,1.4
2018-01-07T04:57:17.697Z,1.4
2018-01-07T04:58:20.178Z,1.3
2018-01-07T04:59:22.677Z,1.3
2018-01-07T05:00:25.163Z,1.3
2018-01-07T05:01:27.935Z,1.2
2018-01-07T05:02:30.429Z,1.3
2018-01-07T05:03:32.914Z,1.1
2018-01-07T05:04:35.716Z,1.1
2018-01-07T05:05:38.217Z,1.1
2018-01-07T05:06:40.707Z,1
2018-01-07T05:07:43.476Z,1.1
2018-01-07T05:08:45.978Z,1.3
2018-01-07T05:09:48.462Z,1.4
2018-01-07T05:10:51.240Z,1.4
2018-01-07T05:11:53.732Z,1.4
2018-01-07T05:12:56.217Z,1.3
2018-01-07T05:13:58.706Z,1.3
2018-01-07T05:15:01.208Z,1.5
2018-01-07T05:16:04.003Z,1.2
2018-01-07T05:17:06.487Z,1.1
2018-01-07T05:18:09.273Z,1.2
2018-01-07T05:19:11.763Z,1.1
2018-01-07T05:20:14.246Z,1
2018-01-07T05:21:16.741Z,1
2018-01-07T05:22:19.229Z,1
2018-01-07T05:23:21.720Z,1.6
2018-01-07T05:24:24.507Z,1.4
2018-01-07T05:25:26.981Z,1.3
2018-01-07T05:26:29.474Z,1.3
2018-01-07T05:27:31.974Z,1.4
2018-01-07T05:28:34.456Z,1.2
2018-01-07T05:29:36.943Z,1.2
2018-01-07T05:30:40.018Z,1.1
2018-01-07T05:31:42.509Z,1.3
2018-01-07T05:32:44.988Z,1.2
2018-01-07T05:33:47.794Z,1.1
2018-01-07T05:34:50.288Z,1
2018-01-07T05:35:52.775Z,1
2018-01-07T05:36:55.263Z,1
2018-01-07T05:37:57.749Z,1.3
2018-01-07T05:39:00.517Z,1.4
2018-01-07T05:40:03.020Z,1.4
2018-01-07T05:41:05.506Z,1.4
2018-01-07T05:42:08.002Z,1.3
2018-01-07T05:43:10.486Z,1.3
2018-01-07T05:44:12.985Z,1.3
2018-01-07T05:45:15.780Z,1.2
2018-01-07T05:46:18.275Z,1.1
2018-01-07T05:47:20.762Z,1.1
2018-01-07T05:48:23.248Z,1
2018-01-07T05:49:25.748Z,1.1
2018-01-07T05:50:28.232Z,1.3
2018-01-07T05:51:30.708Z,1.3
2018-01-07T05:52:33.200Z,1.5
2018-01-07T05:53:35.683Z,1.3
2018-01-07T05:54:38.175Z,1.3
2018-01-07T05:55:40.664Z,1.2
2018-01-07T05:56:43.155Z,1.1
2018-01-07T05:57:45.636Z,1
2018-01-07T05:58:48.137Z,1
2018-01-07T05:59:50.619Z,1
2018-01-07T06:00:53.109Z,1
2018-01-07T06:01:55.593Z,1.3
2018-01-07T06:02:58.080Z,1.3
2018-01-07T06:04:00.865Z,1.4
2018-01-07T06:05:03.373Z,1.3
2018-01-07T06:06:05.853Z,1.2
2018-01-07T06:07:08.361Z,1.3
2018-01-07T06:08:10.847Z,1.2
2018-01-07T06:09:13.341Z,1
2018-01-07T06:10:16.122Z,1.1
2018-01-07T06:11:18.910Z,1
2018-01-07T06:12:21.397Z,1
2018-01-07T06:13:23.887Z,1
2018-01-07T06:14:26.654Z,1.4
2018-01-07T06:15:29.456Z,1.5
2018-01-07T06:16:31.939Z,1.5
2018-01-07T06:17:34.714Z,1.3
2018-01-07T06:18:37.205Z,1.5
2018-01-07T06:19:39.981Z,1.3
2018-01-07T06:20:43.036Z,1.4
2018-01-07T06:21:45.536Z,1.5
2018-01-07T06:22:48.012Z,1.3
2018-01-07T06:23:50.506Z,1.3
2018-01-07T06:24:52.992Z,1.3
2018-01-07T06:25:55.487Z,1.4
2018-01-07T06:26:57.974Z,1.2
2018-01-07T06:28:00.470Z,1
2018-01-07T06:29:03.251Z,1.1
2018-01-07T06:30:05.739Z,1
2018-01-07T06:31:08.217Z,1
2018-01-07T06:32:10.715Z,1
2018-01-07T06:33:13.203Z,1.4
2018-01-07T06:34:15.682Z,1.3
2018-01-07T06:35:18.465Z,1.3
2018-01-07T06:36:20.961Z,1.4
2018-01-07T06:37:23.448Z,1.4
2018-01-07T06:38:25.946Z,1.2
2018-01-07T06:39:28.427Z,1.3
2018-01-07T06:40:30.972Z,1
2018-01-07T06:41:33.478Z,1
2018-01-07T06:42:35.962Z,1
2018-01-07T06:43:38.729Z,1.3
2018-01-07T06:44:41.225Z,1.4
2018-01-07T06:45:43.706Z,1.3
2018-01-07T06:46:46.209Z,1.2
2018-01-07T06:47:48.707Z,1.5
2018-01-07T06:48:51.183Z,1.3
2018-01-07T06:49:53.678Z,1.2
2018-01-07T06:50:56.168Z,1.3
2018-01-07T06:51:58.656Z,1.2
2018-01-07T06:53:01.150Z,1
2018-01-07T06:54:03.919Z,1.1
2018-01-07T06:55:06.689Z,1
2018-01-07T06:56:09.190Z,1.5
2018-01-07T06:57:11.679Z,1
2018-01-07T06:58:14.159Z,1.4
2018-01-07T06:59:16.645Z,1.4
2018-01-07T07:00:19.142Z,1.3
2018-01-07T07:01:21.622Z,1.3
2018-01-07T07:02:24.108Z,1.1
2018-01-07T07:03:26.882Z,1.2
2018-01-07T07:04:29.368Z,1.3
2018-01-07T07:05:31.859Z,1.1
2018-01-07T07:06:34.646Z,1.1
2018-01-07T07:07:37.130Z,1
2018-01-07T07:08:39.912Z,1
2018-01-07T07:09:42.404Z,1
2018-01-07T07:10:45.199Z,1.1
2018-01-07T07:11:47.682Z,1.4
2018-01-07T07:12:50.467Z,1.3
2018-01-07T07:13:52.947Z,1.4
2018-01-07T07:14:55.441Z,1.4
2018-01-07T07:15:58.215Z,1.4
2018-01-07T07:17:01.004Z,1.2
2018-01-07T07:18:03.486Z,1.6
2018-01-07T07:19:05.972Z,1.3
2018-01-07T07:20:08.463Z,1.2
2018-01-07T07:21:10.958Z,1.4
2018-01-07T07:22:13.433Z,1.2
2018-01-07T07:23:15.924Z,1.1
2018-01-07T07:24:18.415Z,1
2018-01-07T07:25:20.903Z,1
2018-01-07T07:26:23.391Z,1.3
2018-01-07T07:27:26.172Z,1.2
2018-01-07T07:28:28.664Z,1.6
2018-01-07T07:29:31.147Z,1.3
2018-01-07T07:30:33.924Z,1.3
2018-01-07T07:31:36.423Z,1.3
2018-01-07T07:32:38.908Z,1.2
2018-01-07T07:33:41.397Z,1.2
2018-01-07T07:34:43.888Z,1.2
2018-01-07T07:35:46.380Z,1
2018-01-07T07:36:48.874Z,1
2018-01-07T07:37:51.364Z,1
2018-01-07T07:38:53.840Z,1.4
2018-01-07T07:39:56.336Z,1.4
2018-01-07T07:40:58.825Z,1.3
2018-01-07T07:42:01.317Z,1.3
2018-01-07T07:43:04.097Z,1.3
2018-01-07T07:44:06.865Z,1.2
2018-01-07T07:45:09.814Z,1.3
2018-01-07T07:46:12.323Z,1.3
2018-01-07T07:47:14.805Z,1.2
2018-01-07T07:48:17.290Z,1.2
2018-01-07T07:49:20.190Z,1.2
2018-01-07T07:50:22.678Z,1.2
2018-01-07T07:51:25.176Z,1
2018-01-07T07:52:27.673Z,1
2018-01-07T07:53:30.157Z,1
2018-01-07T07:54:32.961Z,1.1
2018-01-07T07:55:35.751Z,1.4
2018-01-07T07:56:38.234Z,1
2018-01-07T07:57:41.016Z,1.4
2018-01-07T07:58:43.509Z,1.4
2018-01-07T07:59:45.998Z,1.4
2018-01-07T08:00:48.495Z,1.4
2018-01-07T08:01:51.283Z,1.3
2018-01-07T08:02:53.767Z,1.4
2018-01-07T08:03:56.252Z,1.3
2018-01-07T08:04:58.757Z,1.3
2018-01-07T08:06:01.236Z,1
2018-01-07T08:07:03.725Z,1
2018-01-07T08:08:06.204Z,1
2018-01-07T08:09:08.699Z,1
2018-01-07T08:10:11.190Z,1.4
2018-01-07T08:11:13.687Z,1.4
2018-01-07T08:12:16.170Z,1.5
2018-01-07T08:13:18.665Z,1.5
2018-01-07T08:14:21.154Z,1.3
2018-01-07T08:15:23.646Z,1.2
2018-01-07T08:16:26.432Z,1.2
2018-01-07T08:17:28.916Z,1.4
2018-01-07T08:18:31.406Z,1.1
2018-01-07T08:19:33.912Z,1.1
2018-01-07T08:20:36.688Z,1.1
2018-01-07T08:21:39.465Z,1.5
2018-01-07T08:22:41.948Z,1.5
2018-01-07T08:23:44.439Z,1
2018-01-07T08:24:46.932Z,1.5
2018-01-07T08:25:49.792Z,1.3
2018-01-07T08:26:52.567Z,1.3
2018-01-07T08:27:55.060Z,1.6
2018-01-07T08:28:57.857Z,1.5
2018-01-07T08:30:00.358Z,1.4
2018-01-07T08:31:03.142Z,1.3
2018-01-07T08:32:05.629Z,1.3
2018-01-07T08:33:08.420Z,1.3
2018-01-07T08:34:10.913Z,1.3
2018-01-07T08:35:13.409Z,1.3
2018-01-07T08:36:15.886Z,1
2018-01-07T08:37:18.389Z,1
2018-01-07T08:38:21.185Z,1.1
2018-01-07T08:39:23.678Z,1
2018-01-07T08:40:26.459Z,1
2018-01-07T08:41:29.266Z,1.4
2018-01-07T08:42:31.752Z,1
2018-01-07T08:43:34.244Z,1.3
2018-01-07T08:44:36.727Z,1.4
2018-01-07T08:45:39.511Z,1.4
2018-01-07T08:46:42.002Z,1.4
2018-01-07T08:47:44.498Z,1.3
2018-01-07T08:48:46.991Z,1.4
2018-01-07T08:49:49.485Z,1
2018-01-07T08:50:51.981Z,1.1
2018-01-07T08:51:54.474Z,1.1
2018-01-07T08:52:56.970Z,1.1
2018-01-07T08:53:59.465Z,1.1
2018-01-07T08:55:01.953Z,1.7
2018-01-07T08:56:04.449Z,1.4
2018-01-07T08:57:07.236Z,1.4
2018-01-07T08:58:09.736Z,1.4
2018-01-07T08:59:12.538Z,1.3
2018-01-07T09:00:15.031Z,1.4
2018-01-07T09:01:17.528Z,1.3
2018-01-07T09:02:20.325Z,1.2
2018-01-07T09:03:22.811Z,1.4
2018-01-07T09:04:25.315Z,1.1
2018-01-07T09:05:27.812Z,1.1
2018-01-07T09:06:30.648Z,1.1
2018-01-07T09:07:33.139Z,1.1
2018-01-07T09:08:35.638Z,1
2018-01-07T09:09:38.124Z,1.4
2018-01-07T09:10:40.630Z,1.5
2018-01-07T09:11:43.107Z,1.5
2018-01-07T09:12:45.599Z,1.3
2018-01-07T09:13:48.090Z,1.1
2018-01-07T09:14:50.582Z,1.1
2018-01-07T09:15:53.079Z,1.1
2018-01-07T09:16:55.607Z,1.1
2018-01-07T09:17:58.090Z,1.1
2018-01-07T09:19:00.591Z,1.6
2018-01-07T09:20:03.274Z,1.6
2018-01-07T09:21:06.064Z,1.4
2018-01-07T09:22:09.019Z,1.5
2018-01-07T09:23:11.802Z,1.3
2018-01-07T09:24:14.296Z,1.4
2018-01-07T09:25:16.800Z,1.5
2018-01-07T09:26:19.276Z,1.3
2018-01-07T09:27:21.767Z,1.4
2018-01-07T09:28:24.279Z,1.3
2018-01-07T09:29:26.772Z,1.1
2018-01-07T09:30:29.253Z,1.1
2018-01-07T09:31:31.744Z,1.1
2018-01-07T09:32:34.240Z,1
2018-01-07T09:33:36.731Z,1.1
2018-01-07T09:34:39.527Z,1.5
2018-01-07T09:35:42.293Z,1.4
2018-01-07T09:36:44.786Z,1.5
2018-01-07T09:37:47.603Z,1.6
2018-01-07T09:38:50.086Z,1.5
2018-01-07T09:39:52.574Z,1.5
2018-01-07T09:40:55.071Z,1.4
2018-01-07T09:41:57.555Z,1.2
2018-01-07T09:43:00.067Z,1.1
2018-01-07T09:44:02.559Z,1.1
2018-01-07T09:45:05.044Z,1.1
2018-01-07T09:46:07.540Z,1.1
2018-01-07T09:47:10.032Z,1.5
2018-01-07T09:48:12.521Z,1.6
2018-01-07T09:49:15.032Z,1.6
2018-01-07T09:50:17.506Z,1.3
2018-01-07T09:51:20.000Z,1.4
2018-01-07T09:52:22.505Z,1.3
2018-01-07T09:53:24.995Z,1.1
2018-01-07T09:54:27.503Z,1.1
2018-01-07T09:55:29.996Z,1.1
2018-01-07T09:56:32.487Z,1.1
2018-01-07T09:57:35.288Z,1.6
2018-01-07T09:58:37.776Z,1.5
2018-01-07T09:59:40.579Z,1.6
2018-01-07T10:00:43.066Z,1.4
2018-01-07T10:01:45.574Z,1.4
2018-01-07T10:02:48.070Z,1.3
2018-01-07T10:03:50.556Z,1.2
2018-01-07T10:04:53.047Z,1.3
2018-01-07T10:05:56.131Z,1.1
2018-01-07T10:06:58.910Z,1.1
2018-01-07T10:08:01.413Z,1.1
2018-01-07T10:09:04.196Z,1.1
2018-01-07T10:10:06.987Z,1.1
2018-01-07T10:11:09.487Z,1.1
2018-01-07T10:12:12.274Z,1.1
2018-01-07T10:13:14.759Z,1.8
2018-01-07T10:14:17.551Z,1.4
2018-01-07T10:15:20.055Z,1.4
2018-01-07T10:16:22.550Z,1.4
2018-01-07T10:17:25.429Z,1.5
2018-01-07T10:18:27.942Z,1.4
2018-01-07T10:19:30.424Z,1.4
2018-01-07T10:20:32.927Z,1.3
2018-01-07T10:21:35.420Z,1.4
2018-01-07T10:22:38.204Z,1.4
2018-01-07T10:23:40.698Z,1.2
2018-01-07T10:24:43.202Z,1.4
2018-01-07T10:25:45.699Z,1.1
2018-01-07T10:26:48.213Z,1.1
2018-01-07T10:27:50.709Z,1.4
2018-01-07T10:28:53.206Z,1.4
2018-01-07T10:29:55.700Z,1.4
2018-01-07T10:30:58.202Z,1.4
2018-01-07T10:32:00.698Z,1.3
2018-01-07T10:33:03.192Z,1.3
2018-01-07T10:34:06.832Z,1.1
2018-01-07T10:35:10.567Z,1.5
2018-01-07T10:36:13.062Z,1.4
2018-01-07T10:37:15.565Z,1.6
2018-01-07T10:38:18.353Z,1.5
2018-01-07T10:39:21.135Z,1.4
2018-01-07T10:40:23.629Z,1.5
2018-01-07T10:41:26.405Z,1.4
2018-01-07T10:42:28.912Z,1.3
2018-01-07T10:43:31.404Z,1.3
2018-01-07T10:44:33.890Z,1.3
2018-01-07T10:45:36.387Z,1.2
2018-01-07T10:46:38.893Z,1.2
2018-01-07T10:47:41.679Z,1.6
2018-01-07T10:48:44.763Z,1.9
2018-01-07T10:49:47.257Z,1.6
2018-01-07T10:50:50.344Z,1.5
2018-01-07T10:51:52.855Z,1.8
2018-01-07T10:52:55.641Z,1.5
2018-01-07T10:53:58.121Z,1.6
2018-01-07T10:55:00.617Z,1.5
2018-01-07T10:56:03.113Z,1.5
2018-01-07T10:57:05.613Z,1.4
2018-01-07T10:58:08.103Z,1.5
2018-01-07T10:59:10.900Z,1.3
2018-01-07T11:00:13.394Z,1.3
2018-01-07T11:01:15.891Z,1.3
2018-01-07T11:02:18.682Z,1.2
2018-01-07T11:03:21.174Z,1.3
2018-01-07T11:04:23.675Z,1.6
2018-01-07T11:05:26.172Z,1.5
2018-01-07T11:06:28.959Z,1.5
2018-01-07T11:07:31.452Z,1.8
2018-01-07T11:08:33.958Z,1.6
2018-01-07T11:09:36.461Z,1.9
2018-01-07T11:10:38.950Z,1.6
2018-01-07T11:11:41.450Z,1.3
2018-01-07T11:12:43.951Z,1.2
2018-01-07T11:13:46.455Z,1.3
2018-01-07T11:14:48.954Z,1.7
2018-01-07T11:15:51.444Z,1.6
2018-01-07T11:16:53.945Z,1.6
2018-01-07T11:17:56.746Z,1.7
2018-01-07T11:18:59.246Z,1.9
2018-01-07T11:20:02.038Z,1.6
2018-01-07T11:21:04.541Z,1.4
2018-01-07T11:22:07.035Z,1.3
2018-01-07T11:23:09.537Z,1.4
2018-01-07T11:24:12.043Z,1.5
2018-01-07T11:25:14.526Z,1.6
2018-01-07T11:26:17.035Z,1.6
2018-01-07T11:27:19.535Z,1.8
2018-01-07T11:28:22.346Z,1.8
2018-01-07T11:29:25.128Z,1.6
2018-01-07T11:30:27.641Z,1.6
2018-01-07T11:31:30.140Z,1.5
2018-01-07T11:32:32.626Z,1.4
2018-01-07T11:33:35.133Z,2.3
2018-01-07T11:34:37.624Z,1.3
2018-01-07T11:35:40.126Z,1.8
2018-01-07T11:36:42.628Z,1.8
2018-01-07T11:37:45.120Z,1.5
2018-01-07T11:38:47.620Z,1.7
2018-01-07T11:39:50.142Z,1.8
2018-01-07T11:40:52.935Z,1.5
2018-01-07T11:41:55.445Z,1.5
2018-01-07T11:42:57.944Z,1.7
2018-01-07T11:44:00.443Z,1.5
2018-01-07T11:45:02.948Z,1.9
2018-01-07T11:46:05.451Z,2
2018-01-07T11:47:07.944Z,2
2018-01-07T11:48:10.451Z,1.9
2018-01-07T11:49:12.934Z,2.1
2018-01-07T11:50:15.450Z,1.6
2018-01-07T11:51:18.273Z,1.7
2018-01-07T11:52:21.063Z,1.6
2018-01-07T11:53:23.593Z,2.2
2018-01-07T11:54:26.065Z,1.7
2018-01-07T11:55:28.563Z,2.1
2018-01-07T11:56:31.088Z,2
2018-01-07T11:57:33.583Z,2.1
2018-01-07T11:58:36.370Z,2.2
2018-01-07T11:59:38.879Z,1.8
2018-01-07T12:00:41.382Z,1.6
2018-01-07T12:01:43.881Z,1.6
2018-01-07T12:02:46.396Z,1.7
2018-01-07T12:03:48.886Z,2.1
2018-01-07T12:04:51.393Z,2.3
2018-01-07T12:05:53.918Z,2.6
2018-01-07T12:06:57.006Z,1.9
2018-01-07T12:07:59.814Z,2.1
2018-01-07T12:09:02.908Z,2.1
2018-01-07T12:10:05.703Z,2.1
2018-01-07T12:11:08.494Z,2.2
2018-01-07T12:12:11.034Z,2
2018-01-07T12:13:13.531Z,1.8
2018-01-07T12:14:16.024Z,1.8
2018-01-07T12:15:18.545Z,1.7
2018-01-07T12:16:21.322Z,1.9
2018-01-07T12:17:23.829Z,2.2
2018-01-07T12:18:26.331Z,2.4
2018-01-07T12:19:29.143Z,2.1
2018-01-07T12:20:31.935Z,2.1
2018-01-07T12:21:34.730Z,1.9
2018-01-07T12:22:37.223Z,2
2018-01-07T12:23:39.741Z,2
2018-01-07T12:24:42.248Z,1.8
2018-01-07T12:25:44.752Z,2.2
2018-01-07T12:26:47.251Z,2
2018-01-07T12:27:50.055Z,1.9
2018-01-07T12:28:52.552Z,2.2
2018-01-07T12:29:55.340Z,2.2
2018-01-07T12:30:58.129Z,2.2
2018-01-07T12:32:00.950Z,2.1
2018-01-07T12:33:03.698Z,2.2
2018-01-07T12:34:06.197Z,2.1
2018-01-07T12:35:08.708Z,2.2
2018-01-07T12:36:11.511Z,1.9
2018-01-07T12:37:14.019Z,1.8
2018-01-07T12:38:16.529Z,1.8
2018-01-07T12:39:19.019Z,2.3
2018-01-07T12:40:22.627Z,2.3
2018-01-07T12:41:26.389Z,2.3
2018-01-07T12:42:29.494Z,2.5
2018-01-07T12:43:32.298Z,2.5
2018-01-07T12:44:34.815Z,2
2018-01-07T12:45:39.587Z,1.8
2018-01-07T12:46:43.189Z,1.9
2018-01-07T12:47:45.686Z,2.3
2018-01-07T12:48:48.207Z,2.1
2018-01-07T12:49:50.712Z,2.1
2018-01-07T12:50:53.497Z,2.1
2018-01-07T12:51:56.013Z,1.8
2018-01-07T12:52:59.100Z,1.8
2018-01-07T12:54:01.898Z,2.4
2018-01-07T12:55:04.686Z,2.3
2018-01-07T12:56:07.200Z,2
2018-01-07T12:57:09.704Z,1.7
2018-01-07T12:58:12.574Z,1.7
2018-01-07T12:59:15.110Z,1.8
2018-01-07T13:00:17.591Z,1.6
2018-01-07T13:01:20.314Z,1.9
2018-01-07T13:02:26.176Z,2.2
2018-01-07T13:03:32.036Z,2.3
2018-01-07T13:04:36.912Z,2.2
2018-01-07T13:05:46.238Z,2.2
2018-01-07T13:06:53.411Z,2
2018-01-07T13:07:55.917Z,1.4
2018-01-07T13:08:58.920Z,1.5
2018-01-07T13:10:02.213Z,1.9
2018-01-07T13:11:05.232Z,1.8
2018-01-07T13:12:08.581Z,1.5
2018-01-07T13:13:11.427Z,1.7
2018-01-07T13:14:16.895Z,1.4
2018-01-07T13:15:19.918Z,1.8
2018-01-07T13:16:23.251Z,1.5
2018-01-07T13:17:28.579Z,1.7
2018-01-07T13:18:38.536Z,1.9
2018-01-07T13:19:51.390Z,1.9
2018-01-07T13:20:57.250Z,1.8
2018-01-07T13:22:03.308Z,1.6
2018-01-07T13:23:11.611Z,1.8
2018-01-07T13:24:21.759Z,1.8
2018-01-07T13:25:30.799Z,2.1
2018-01-07T13:26:44.992Z,2
2018-01-07T13:27:48.615Z,1.9
2018-01-07T13:28:55.489Z,2.3
2018-01-07T13:30:00.897Z,1.8
2018-01-07T13:31:09.429Z,1.5
2018-01-07T13:32:18.943Z,1.8
2018-01-07T13:33:24.262Z,1.8
2018-01-07T13:34:27.759Z,1.7
2018-01-07T13:35:32.870Z,1.6
2018-01-07T13:36:36.853Z,1.7
2018-01-07T13:37:40.468Z,1.7
2018-01-07T13:38:45.005Z,1.7
2018-01-07T13:39:55.034Z,1.4
2018-01-07T13:41:05.273Z,1.6
2018-01-07T13:42:09.327Z,1.9
2018-01-07T13:43:13.460Z,1.8
2018-01-07T13:44:28.755Z,1.7
2018-01-07T13:45:31.375Z,1.3
2018-01-07T13:46:35.012Z,1.4
2018-01-07T13:47:40.517Z,1.5
2018-01-07T13:48:49.590Z,1.7
2018-01-07T13:49:54.956Z,1.6
2018-01-07T13:50:59.541Z,1.8
2018-01-07T13:52:03.330Z,1.2
2018-01-07T13:53:06.382Z,1.6
2018-01-07T13:54:11.153Z,1.6
2018-01-07T13:55:20.063Z,1.5
2018-01-07T13:56:26.462Z,1.5
2018-01-07T13:57:30.196Z,1.7
2018-01-07T13:58:39.961Z,1.2
2018-01-07T13:59:49.078Z,1.6
2018-01-07T14:00:55.705Z,1.6
2018-01-07T14:01:59.700Z,1.7
2018-01-07T14:03:02.200Z,1.3
2018-01-07T14:04:04.978Z,1.4
2018-01-07T14:05:07.468Z,1.5
2018-01-07T14:06:09.980Z,1.6
2018-01-07T14:07:12.482Z,1.5
2018-01-07T14:08:15.258Z,1.2
2018-01-07T14:09:17.761Z,1.2
2018-01-07T14:10:20.249Z,1.2
2018-01-07T14:11:22.750Z,1.1
2018-01-07T14:12:25.252Z,1.5
2018-01-07T14:13:27.730Z,1.8
2018-01-07T14:14:30.230Z,1.5
2018-01-07T14:15:32.728Z,1.5
2018-01-07T14:16:35.221Z,1.3
2018-01-07T14:17:37.715Z,1.3
2018-01-07T14:18:40.209Z,1.2
2018-01-07T14:19:43.010Z,1.2
2018-01-07T14:20:45.516Z,1.2
2018-01-07T14:21:48.009Z,1.1
2018-01-07T14:22:50.781Z,1.4
2018-01-07T14:23:53.573Z,1.7
2018-01-07T14:24:56.066Z,1.7
2018-01-07T14:25:58.578Z,1.6
2018-01-07T14:27:01.074Z,1.6
2018-01-07T14:28:03.601Z,1.3
2018-01-07T14:29:07.086Z,1.4
2018-01-07T14:30:13.188Z,1.3
2018-01-07T14:31:16.962Z,1.2
2018-01-07T14:32:22.463Z,1.4